Time;durP1;ratioP1;P1;durP2;ratioP2;P2;SDS_P1;SDS_P2;PMS_P1;PMS_P2;Temp;Humidity;BMP_temperature;BMP_pressure;BME280_temperature;BME280_humidity;BME280_pressure;Samples;Min_cycle;Max_cycle;Signal;HPM_P1;HPM_P2
2021/05/22 00:02:24;;;;;;;0.82;0.80;;;15.50;61.00;;;;;;4996301;28;20025;-83
2021/05/22 00:04:50;;;;;;;0.77;0.70;;;15.50;61.00;;;;;;4993868;28;20121;-82
2021/05/22 00:07:16;;;;;;;1.35;0.90;;;15.50;61.10;;;;;;5013118;28;20103;-83
2021/05/22 00:09:44;;;;;;;1.25;0.90;;;15.50;61.10;;;;;;4996360;28;20034;-83
2021/05/22 00:12:10;;;;;;;1.92;0.98;;;15.40;61.10;;;;;;5013076;28;20033;-83
2021/05/22 00:14:36;;;;;;;2.25;1.00;;;15.50;61.10;;;;;;4996568;28;20033;-83
2021/05/22 00:17:02;;;;;;;2.35;1.08;;;15.40;61.10;;;;;;4996026;28;20036;-83
2021/05/22 00:19:28;;;;;;;1.63;1.10;;;15.40;61.10;;;;;;5012598;28;20057;-83
2021/05/22 00:21:54;;;;;;;3.50;1.30;;;15.40;61.20;;;;;;5009040;28;20037;-82
2021/05/22 00:24:19;;;;;;;1.38;0.85;;;15.30;61.10;;;;;;4992456;28;20037;-83
2021/05/22 00:26:45;;;;;;;1.17;1.00;;;15.30;61.10;;;;;;5006066;28;20419;-82
2021/05/22 00:29:12;;;;;;;0.80;0.80;;;15.30;61.20;;;;;;4994543;28;20022;-82
2021/05/22 00:31:38;;;;;;;2.10;1.25;;;15.30;61.20;;;;;;4996256;28;20544;-83
2021/05/22 00:34:04;;;;;;;1.13;0.90;;;15.30;61.20;;;;;;5005768;28;20041;-84
2021/05/22 00:36:30;;;;;;;2.38;1.00;;;15.30;61.20;;;;;;4996085;28;20042;-84
2021/05/22 00:38:56;;;;;;;2.92;1.10;;;15.30;61.30;;;;;;4993277;28;20123;-83
2021/05/22 00:41:22;;;;;;;2.55;1.27;;;15.30;61.30;;;;;;4994109;28;20044;-84
2021/05/22 00:43:48;;;;;;;1.27;0.93;;;15.30;61.30;;;;;;4995465;28;20017;-82
2021/05/22 00:46:14;;;;;;;1.35;0.90;;;15.30;61.30;;;;;;5012543;28;20033;-84
2021/05/22 00:48:40;;;;;;;0.85;0.70;;;15.20;61.30;;;;;;5012327;28;20022;-83
2021/05/22 00:51:06;;;;;;;2.10;1.00;;;15.20;61.30;;;;;;5011722;28;20084;-84
2021/05/22 00:53:32;;;;;;;1.25;0.90;;;15.20;61.30;;;;;;5011938;28;20029;-84
2021/05/22 00:56:01;;;;;;;2.03;1.20;;;15.20;61.30;;;;;;5010981;28;20033;-81
2021/05/22 00:58:27;;;;;;;1.45;0.98;;;15.20;61.40;;;;;;5011836;28;20121;-83
2021/05/22 01:00:55;;;;;;;2.42;1.20;;;15.20;61.40;;;;;;4992221;28;20029;-83
2021/05/22 01:03:26;;;;;;;1.67;0.82;;;15.20;61.40;;;;;;4995363;28;20026;-83
2021/05/22 01:06:14;;;;;;;1.60;1.00;;;15.10;61.40;;;;;;5011227;28;20038;-83
2021/05/22 01:08:44;;;;;;;1.15;0.95;;;15.10;61.50;;;;;;5010946;28;20113;-83
2021/05/22 01:11:15;;;;;;;1.30;0.98;;;15.10;61.40;;;;;;4986914;28;20034;-83
2021/05/22 01:13:43;;;;;;;1.75;1.08;;;15.10;61.40;;;;;;5011618;28;20105;-82
2021/05/22 01:16:11;;;;;;;1.75;1.10;;;15.10;61.40;;;;;;4989252;28;20467;-82
2021/05/22 01:18:40;;;;;;;1.65;0.90;;;15.10;61.40;;;;;;5027413;28;20113;-84
2021/05/22 01:21:06;;;;;;;1.55;1.00;;;15.10;61.40;;;;;;4988964;28;20022;-82
2021/05/22 01:23:50;;;;;;;2.08;1.00;;;15.10;61.40;;;;;;4992406;28;20586;-83
2021/05/22 01:26:16;;;;;;;1.48;0.93;;;15.00;61.40;;;;;;5007938;28;20034;-83
2021/05/22 01:28:44;;;;;;;0.77;0.77;;;15.10;61.40;;;;;;4993689;28;20444;-83
2021/05/22 01:31:10;;;;;;;2.60;0.93;;;15.00;61.40;;;;;;4989429;28;20029;-85
2021/05/22 01:33:36;;;;;;;1.50;0.90;;;15.00;61.40;;;;;;4985577;28;20491;-84
2021/05/22 01:36:03;;;;;;;1.23;0.80;;;15.00;61.50;;;;;;5001200;28;20034;-84
2021/05/22 01:38:28;;;;;;;1.65;0.93;;;15.10;61.50;;;;;;4995293;28;20061;-83
2021/05/22 01:40:54;;;;;;;1.55;1.00;;;15.00;61.40;;;;;;4991598;28;20030;-83
2021/05/22 01:43:20;;;;;;;2.65;1.08;;;15.00;61.40;;;;;;5015670;28;20489;-82
2021/05/22 01:45:49;;;;;;;1.52;0.95;;;15.00;61.40;;;;;;4999016;28;20046;-84
2021/05/22 01:48:18;;;;;;;2.08;0.95;;;15.00;61.40;;;;;;5015914;28;20026;-84
2021/05/22 01:50:49;;;;;;;1.67;0.90;;;15.00;61.40;;;;;;5012863;28;20037;-83
2021/05/22 01:53:18;;;;;;;2.35;1.10;;;15.00;61.40;;;;;;5015721;28;20053;-84
2021/05/22 01:55:46;;;;;;;2.72;0.90;;;15.00;62.10;;;;;;4989336;28;20478;-83
2021/05/22 01:58:13;;;;;;;1.35;1.02;;;15.00;61.40;;;;;;5032133;28;20030;-83
2021/05/22 02:00:40;;;;;;;2.15;1.10;;;15.00;61.40;;;;;;5012303;28;20057;-84
2021/05/22 02:03:11;;;;;;;1.88;1.15;;;15.00;61.40;;;;;;4990652;28;20091;-83
2021/05/22 02:05:38;;;;;;;1.83;1.00;;;14.90;61.40;;;;;;5009951;28;20030;-85
2021/05/22 02:08:09;;;;;;;1.33;1.00;;;15.00;61.40;;;;;;5015508;28;20026;-83
2021/05/22 02:10:35;;;;;;;1.83;1.10;;;14.90;61.40;;;;;;5002225;28;20109;-84
2021/05/22 02:13:03;;;;;;;1.92;1.00;;;14.90;61.30;;;;;;4999138;28;20053;-83
2021/05/22 02:15:31;;;;;;;2.03;1.00;;;14.90;61.40;;;;;;5009413;28;20069;-84
2021/05/22 02:17:57;;;;;;;0.98;0.90;;;14.90;61.40;;;;;;4995960;28;20022;-83
2021/05/22 02:20:25;;;;;;;1.83;0.95;;;14.90;61.40;;;;;;4997816;28;20037;-83
2021/05/22 02:22:54;;;;;;;2.08;1.00;;;14.90;61.40;;;;;;5011701;28;20030;-84
2021/05/22 02:25:21;;;;;;;2.13;1.13;;;14.90;61.40;;;;;;5009880;28;20030;-83
2021/05/22 02:27:47;;;;;;;1.63;1.00;;;14.90;61.40;;;;;;4982817;28;20124;-83
2021/05/22 02:30:16;;;;;;;1.33;0.90;;;14.90;61.40;;;;;;5014014;28;20549;-83
2021/05/22 02:32:45;;;;;;;0.90;0.90;;;14.90;61.40;;;;;;4991970;28;20080;-84
2021/05/22 02:35:12;;;;;;;1.98;1.10;;;14.90;61.40;;;;;;4997886;28;20332;-83
2021/05/22 02:37:39;;;;;;;1.25;0.95;;;14.90;61.40;;;;;;4995414;28;20081;-84
2021/05/22 02:40:27;;;;;;;0.98;0.80;;;14.90;61.40;;;;;;5011483;28;20069;-83
2021/05/22 02:42:59;;;;;;;1.67;0.90;;;14.90;61.50;;;;;;5014569;28;20109;-84
2021/05/22 02:45:27;;;;;;;1.45;0.90;;;14.80;61.30;;;;;;5015083;28;20449;-83
2021/05/22 02:47:56;;;;;;;1.27;0.90;;;14.80;61.40;;;;;;5002534;28;20027;-84
2021/05/22 02:50:23;;;;;;;0.85;0.85;;;14.80;61.40;;;;;;5012038;28;20022;-86
2021/05/22 02:52:49;;;;;;;1.55;1.10;;;14.80;61.40;;;;;;4988793;28;20073;-83
2021/05/22 02:55:15;;;;;;;1.45;0.90;;;14.80;61.40;;;;;;5001970;28;20041;-82
2021/05/22 02:57:42;;;;;;;1.38;0.95;;;14.80;61.40;;;;;;4997926;28;20076;-83
2021/05/22 03:00:09;;;;;;;1.35;1.00;;;14.80;61.40;;;;;;5010235;28;20034;-83
2021/05/22 03:02:37;;;;;;;1.17;1.00;;;14.80;61.40;;;;;;4989559;28;20501;-83
2021/05/22 03:05:07;;;;;;;2.30;0.90;;;14.80;61.40;;;;;;4994538;28;20113;-83
2021/05/22 03:07:36;;;;;;;0.98;0.88;;;14.80;61.40;;;;;;5022536;28;20037;-83
2021/05/22 03:10:05;;;;;;;1.48;0.80;;;14.80;61.40;;;;;;5006792;28;20113;-82
2021/05/22 03:12:33;;;;;;;1.15;0.80;;;14.80;61.50;;;;;;5011469;28;20034;-82
2021/05/22 03:14:59;;;;;;;1.33;0.90;;;14.70;61.40;;;;;;5009761;28;20030;-84
2021/05/22 03:17:24;;;;;;;0.77;0.70;;;14.70;61.40;;;;;;5010058;28;20109;-83
2021/05/22 03:19:50;;;;;;;0.95;0.80;;;14.70;61.40;;;;;;4994583;28;20018;-82
2021/05/22 03:22:16;;;;;;;1.10;0.85;;;14.70;61.40;;;;;;5013644;28;20041;-83
2021/05/22 03:24:42;;;;;;;1.38;0.88;;;14.80;61.50;;;;;;5013458;28;20116;-84
2021/05/22 03:27:08;;;;;;;1.77;1.05;;;14.70;61.50;;;;;;4997545;28;20064;-83
2021/05/22 03:29:34;;;;;;;1.60;0.90;;;14.80;61.60;;;;;;4997351;28;20637;-85
2021/05/22 03:32:00;;;;;;;0.77;0.70;;;14.70;61.50;;;;;;5013314;28;20304;-84
2021/05/22 03:34:26;;;;;;;1.00;0.90;;;14.70;61.50;;;;;;5026258;28;20038;-84
2021/05/22 03:36:52;;;;;;;0.70;0.70;;;14.70;61.50;;;;;;4991875;28;20046;-84
2021/05/22 03:39:18;;;;;;;1.65;0.90;;;14.70;61.60;;;;;;4997068;28;20080;-84
2021/05/22 03:41:44;;;;;;;1.00;0.90;;;14.70;61.50;;;;;;4999972;28;20033;-84
2021/05/22 03:44:10;;;;;;;1.33;0.85;;;14.70;61.50;;;;;;4996760;28;20034;-84
2021/05/22 03:46:36;;;;;;;1.40;0.90;;;14.70;61.50;;;;;;5012300;28;20112;-83
2021/05/22 03:49:02;;;;;;;1.00;0.80;;;14.70;61.60;;;;;;4995897;28;20112;-84
2021/05/22 03:51:28;;;;;;;0.82;0.80;;;14.70;61.60;;;;;;4996719;28;20112;-84
2021/05/22 03:53:54;;;;;;;1.15;0.80;;;14.70;61.60;;;;;;5013178;28;20513;-84
2021/05/22 03:56:20;;;;;;;0.90;0.90;;;14.70;61.60;;;;;;5009388;28;20058;-84
2021/05/22 03:58:45;;;;;;;1.38;0.90;;;14.60;61.60;;;;;;4996562;28;20033;-84
2021/05/22 04:01:11;;;;;;;1.58;0.80;;;14.60;61.60;;;;;;5007230;28;20018;-84
2021/05/22 04:03:37;;;;;;;1.40;0.85;;;14.70;61.60;;;;;;5010847;28;20038;-84
2021/05/22 04:06:03;;;;;;;1.38;0.80;;;14.70;61.60;;;;;;4993327;28;20121;-84
2021/05/22 04:08:28;;;;;;;1.15;0.75;;;14.60;61.60;;;;;;5000497;28;20069;-84
2021/05/22 04:10:54;;;;;;;0.98;0.85;;;14.60;61.60;;;;;;4996848;28;20061;-83
2021/05/22 04:13:20;;;;;;;1.23;0.93;;;14.60;61.60;;;;;;5013013;28;20132;-84
2021/05/22 04:15:46;;;;;;;1.05;0.70;;;14.60;61.70;;;;;;5012852;28;20044;-83
2021/05/22 04:18:13;;;;;;;1.20;0.80;;;14.60;61.60;;;;;;5009242;28;20022;-85
2021/05/22 04:20:39;;;;;;;1.17;0.90;;;14.60;61.70;;;;;;4996725;28;20026;-83
2021/05/22 04:23:04;;;;;;;1.50;1.05;;;14.60;61.70;;;;;;4996247;28;20033;-83
2021/05/22 04:25:30;;;;;;;1.23;0.80;;;14.60;61.70;;;;;;4996411;28;20398;-84
2021/05/22 04:27:56;;;;;;;1.70;0.80;;;14.60;61.70;;;;;;5008791;28;20026;-83
2021/05/22 04:30:22;;;;;;;1.83;0.90;;;14.60;61.70;;;;;;5010370;28;20030;-84
2021/05/22 04:32:48;;;;;;;2.47;1.10;;;14.60;61.70;;;;;;5012393;28;20026;-83
2021/05/22 04:35:14;;;;;;;1.08;0.80;;;14.60;61.70;;;;;;4996431;28;20068;-84
2021/05/22 04:37:40;;;;;;;1.33;0.80;;;14.60;61.70;;;;;;5008255;28;20133;-83
2021/05/22 04:40:06;;;;;;;2.20;1.27;;;14.60;61.80;;;;;;4995680;28;20676;-83
2021/05/22 04:42:32;;;;;;;0.80;0.77;;;14.60;61.80;;;;;;5012747;28;20474;-84
2021/05/22 04:44:59;;;;;;;1.17;0.90;;;14.60;61.90;;;;;;5009178;28;20030;-84
2021/05/22 04:47:25;;;;;;;1.13;0.88;;;14.60;61.90;;;;;;5007220;28;20030;-86
2021/05/22 04:49:51;;;;;;;1.15;0.98;;;14.60;61.90;;;;;;5010417;28;20038;-85
2021/05/22 04:52:16;;;;;;;1.30;0.90;;;14.60;61.90;;;;;;4996061;28;20033;-85
2021/05/22 04:54:42;;;;;;;0.88;0.80;;;14.60;61.90;;;;;;4992961;28;20508;-84
2021/05/22 04:57:08;;;;;;;0.73;0.73;;;14.60;61.90;;;;;;4995639;28;20126;-84
2021/05/22 04:59:34;;;;;;;1.60;0.88;;;14.60;61.90;;;;;;5012727;28;20471;-84
2021/05/22 05:01:59;;;;;;;0.75;0.75;;;14.60;61.90;;;;;;5012130;28;20045;-83
2021/05/22 05:04:25;;;;;;;0.90;0.90;;;14.50;61.90;;;;;;4995753;28;20088;-84
2021/05/22 05:06:51;;;;;;;1.40;0.82;;;14.60;62.00;;;;;;5000396;28;20089;-83
2021/05/22 05:09:17;;;;;;;2.28;1.00;;;14.50;62.00;;;;;;5010979;28;20506;-82
2021/05/22 05:11:43;;;;;;;0.85;0.80;;;14.50;62.00;;;;;;5007069;28;20033;-83
2021/05/22 05:14:08;;;;;;;2.03;1.08;;;14.50;62.00;;;;;;4995379;28;20030;-85
2021/05/22 05:16:34;;;;;;;2.33;1.00;;;14.50;62.10;;;;;;5031916;28;20033;-84
2021/05/22 05:19:00;;;;;;;1.33;0.88;;;14.50;62.10;;;;;;4999951;28;20080;-83
2021/05/22 05:21:26;;;;;;;0.77;0.77;;;14.50;62.10;;;;;;5016004;28;20474;-84
2021/05/22 05:23:52;;;;;;;1.92;1.15;;;14.50;62.10;;;;;;4998294;28;20121;-83
2021/05/22 05:26:17;;;;;;;1.42;0.88;;;14.50;62.10;;;;;;5002194;28;20624;-83
2021/05/22 05:28:43;;;;;;;1.55;0.85;;;14.50;62.20;;;;;;4987972;28;20035;-84
2021/05/22 05:31:10;;;;;;;1.17;1.02;;;14.50;62.20;;;;;;5011782;28;20069;-83
2021/05/22 05:33:36;;;;;;;1.33;0.80;;;14.50;62.30;;;;;;5012309;28;20030;-83
2021/05/22 05:36:02;;;;;;;1.35;0.80;;;14.50;62.30;;;;;;5005190;28;20037;-85
2021/05/22 05:38:28;;;;;;;1.98;0.98;;;14.50;62.30;;;;;;5031793;28;20073;-84
2021/05/22 05:40:55;;;;;;;1.27;0.93;;;14.50;62.30;;;;;;4999919;28;20038;-83
2021/05/22 05:43:21;;;;;;;1.15;0.88;;;14.50;62.40;;;;;;5015401;28;20032;-84
2021/05/22 05:45:47;;;;;;;1.08;0.82;;;14.50;62.40;;;;;;5017335;28;20048;-84
2021/05/22 05:48:13;;;;;;;1.25;0.90;;;14.50;62.40;;;;;;4997969;28;20124;-84
2021/05/22 05:50:39;;;;;;;0.80;0.80;;;14.50;62.40;;;;;;5011240;28;20034;-84
2021/05/22 05:53:05;;;;;;;1.88;0.82;;;14.50;62.50;;;;;;5014916;28;20030;-84
2021/05/22 05:55:31;;;;;;;1.70;1.00;;;14.50;62.50;;;;;;5031866;28;20056;-83
2021/05/22 05:57:56;;;;;;;1.05;0.80;;;14.50;62.60;;;;;;5011820;28;20035;-83
2021/05/22 06:00:23;;;;;;;0.93;0.82;;;14.40;62.50;;;;;;4997299;28;20080;-85
2021/05/22 06:02:49;;;;;;;0.80;0.80;;;14.40;62.60;;;;;;5015784;28;20128;-84
2021/05/22 06:05:16;;;;;;;1.02;0.80;;;14.40;62.60;;;;;;4998850;28;20100;-86
2021/05/22 06:07:42;;;;;;;1.17;1.00;;;14.40;62.70;;;;;;5004520;28;20084;-85
2021/05/22 06:10:08;;;;;;;1.70;1.00;;;14.40;62.70;;;;;;5013114;28;20019;-84
2021/05/22 06:12:35;;;;;;;0.82;0.80;;;14.40;62.70;;;;;;4998636;28;20030;-85
2021/05/22 06:17:45;;;;;;;1.85;1.00;;;14.40;62.80;;;;;;5005092;28;20054;-85
2021/05/22 06:20:12;;;;;;;1.02;0.80;;;14.40;62.80;;;;;;5007075;28;20026;-85
2021/05/22 06:22:38;;;;;;;1.38;0.88;;;14.40;62.90;;;;;;5006813;28;20091;-84
2021/05/22 06:25:04;;;;;;;2.00;1.20;;;14.30;62.90;;;;;;5015167;28;20425;-85
2021/05/22 06:27:31;;;;;;;1.50;0.98;;;14.40;63.00;;;;;;5014452;28;20045;-85
2021/05/22 06:29:56;;;;;;;0.82;0.80;;;14.30;62.90;;;;;;5010804;28;20022;-84
2021/05/22 06:32:22;;;;;;;2.50;1.00;;;14.30;62.90;;;;;;4990724;28;20037;-85
2021/05/22 06:34:48;;;;;;;1.33;0.80;;;14.30;63.00;;;;;;4998440;28;20063;-87
2021/05/22 06:37:14;;;;;;;1.13;1.02;;;14.30;63.00;;;;;;4998742;28;20459;-85
2021/05/22 06:39:40;;;;;;;1.35;0.80;;;14.40;63.10;;;;;;4996767;28;20046;-85
2021/05/22 06:42:06;;;;;;;2.55;1.05;;;14.30;63.10;;;;;;5005172;28;20092;-84
2021/05/22 06:44:39;;;;;;;2.35;1.02;;;14.30;63.10;;;;;;4997832;28;20061;-84
2021/05/22 06:47:05;;;;;;;1.00;0.90;;;14.30;63.20;;;;;;5011259;28;20061;-86
2021/05/22 06:49:33;;;;;;;1.98;1.10;;;14.30;63.20;;;;;;4997624;28;20474;-85
2021/05/22 06:52:01;;;;;;;1.42;0.93;;;14.30;63.20;;;;;;5014688;28;20026;-85
2021/05/22 06:54:29;;;;;;;1.55;1.00;;;14.30;63.30;;;;;;5022028;28;20034;-85
2021/05/22 06:56:55;;;;;;;1.92;1.40;;;14.30;63.30;;;;;;5000050;28;20381;-84
2021/05/22 06:59:21;;;;;;;1.70;1.00;;;14.30;63.30;;;;;;5014219;28;20026;-85
2021/05/22 07:01:47;;;;;;;2.13;1.02;;;14.30;63.40;;;;;;5013197;28;20129;-84
2021/05/22 07:04:13;;;;;;;1.63;1.27;;;14.30;63.40;;;;;;5011652;28;20108;-86
2021/05/22 07:06:39;;;;;;;0.73;0.73;;;14.30;63.50;;;;;;4997706;28;20034;-85
2021/05/22 07:09:06;;;;;;;1.67;1.00;;;14.30;63.50;;;;;;4985591;28;20034;-85
2021/05/22 07:11:34;;;;;;;1.48;1.10;;;14.30;63.60;;;;;;5014168;28;20034;-85
2021/05/22 07:14:00;;;;;;;1.58;0.90;;;14.30;63.60;;;;;;4997872;28;20478;-85
2021/05/22 07:16:26;;;;;;;1.27;0.80;;;14.30;63.60;;;;;;4997577;28;20026;-87
2021/05/22 07:18:52;;;;;;;0.95;0.80;;;14.30;63.60;;;;;;5000630;28;20033;-87
2021/05/22 07:21:18;;;;;;;2.40;0.98;;;14.30;63.60;;;;;;5014472;28;20172;-86
2021/05/22 07:23:44;;;;;;;0.95;0.85;;;14.30;63.70;;;;;;5011405;28;20026;-88
2021/05/22 07:26:09;;;;;;;1.10;0.98;;;14.30;63.80;;;;;;5010194;28;20026;-90
2021/05/22 07:28:35;;;;;;;2.10;1.00;;;14.30;63.80;;;;;;5012415;28;20038;-82
2021/05/22 07:31:02;;;;;;;1.15;0.90;;;14.30;63.80;;;;;;4991070;28;20121;-83
2021/05/22 07:33:29;;;;;;;1.85;1.00;;;14.30;63.80;;;;;;5007189;28;20072;-82
2021/05/22 07:35:55;;;;;;;1.00;0.90;;;14.30;63.90;;;;;;5005752;28;20072;-88
2021/05/22 07:38:21;;;;;;;0.75;0.75;;;14.30;63.90;;;;;;4979181;28;20082;-87
2021/05/22 07:40:47;;;;;;;1.20;0.70;;;14.30;63.90;;;;;;5020989;28;20036;-89
2021/05/22 07:43:13;;;;;;;1.15;0.90;;;14.30;63.90;;;;;;5028973;28;20105;-85
2021/05/22 07:45:39;;;;;;;0.70;0.70;;;14.30;63.90;;;;;;5012999;28;20044;-86
2021/05/22 07:48:05;;;;;;;1.10;1.00;;;14.30;64.00;;;;;;4997600;28;20026;-86
2021/05/22 07:50:32;;;;;;;0.88;0.82;;;14.30;64.00;;;;;;5010535;28;20042;-88
2021/05/22 07:52:58;;;;;;;2.20;1.00;;;14.30;64.00;;;;;;5029573;28;20121;-88
2021/05/22 07:55:24;;;;;;;1.25;1.00;;;14.30;64.10;;;;;;4985006;28;20034;-87
2021/05/22 07:57:50;;;;;;;1.25;0.80;;;14.30;64.10;;;;;;4987237;28;20076;-86
2021/05/22 08:00:16;;;;;;;0.98;0.90;;;14.30;64.10;;;;;;4999644;28;20075;-88
2021/05/22 08:02:45;;;;;;;0.88;0.80;;;14.30;64.10;;;;;;5011585;28;20021;-89
2021/05/22 08:05:13;;;;;;;1.83;1.00;;;14.30;64.20;;;;;;5009393;28;20049;-88
2021/05/22 08:07:40;;;;;;;1.08;0.90;;;14.30;64.20;;;;;;5012960;28;20021;-90
2021/05/22 08:10:07;;;;;;;1.10;0.80;;;14.30;64.20;;;;;;5005361;28;20021;-88
2021/05/22 08:12:33;;;;;;;1.95;0.90;;;14.30;64.20;;;;;;5012320;28;20050;-87
2021/05/22 08:14:59;;;;;;;1.45;1.00;;;14.30;64.20;;;;;;5013008;28;20030;-87
2021/05/22 08:17:25;;;;;;;1.02;0.90;;;14.30;64.30;;;;;;5013167;28;20032;-88
2021/05/22 08:19:51;;;;;;;0.98;0.88;;;14.30;64.30;;;;;;5006249;28;20030;-86
2021/05/22 08:22:17;;;;;;;1.35;0.82;;;14.30;64.30;;;;;;4975931;28;20042;-89
2021/05/22 08:24:43;;;;;;;0.70;0.70;;;14.30;64.30;;;;;;5006624;28;20041;-86
2021/05/22 08:27:09;;;;;;;1.17;0.90;;;14.30;64.30;;;;;;4976501;28;20042;-90
2021/05/22 08:29:35;;;;;;;1.08;0.98;;;14.30;64.30;;;;;;4979226;28;20046;-85
2021/05/22 08:32:01;;;;;;;0.93;0.82;;;14.30;64.30;;;;;;5006409;28;20029;-88
2021/05/22 08:34:27;;;;;;;0.70;0.70;;;14.30;64.40;;;;;;5008413;28;20117;-88
2021/05/22 08:36:54;;;;;;;0.70;0.70;;;14.40;64.50;;;;;;4992417;28;20022;-89
2021/05/22 08:39:20;;;;;;;0.95;0.80;;;14.30;64.40;;;;;;4988420;28;20046;-90
2021/05/22 08:41:49;;;;;;;1.75;0.85;;;14.40;64.50;;;;;;5000663;28;20075;-90
2021/05/22 08:44:15;;;;;;;0.70;0.70;;;14.40;64.60;;;;;;5009925;28;20030;-93
2021/05/22 08:46:40;;;;;;;1.08;0.80;;;14.30;64.50;;;;;;5008885;28;20371;-88
2021/05/22 08:49:08;;;;;;;1.70;0.93;;;14.40;64.50;;;;;;5012663;28;20026;-91
2021/05/22 08:51:34;;;;;;;1.52;0.90;;;14.40;64.60;;;;;;4992826;28;20026;-91
2021/05/22 08:54:00;;;;;;;0.70;0.70;;;14.40;64.60;;;;;;5002978;28;20084;-86
2021/05/22 08:56:25;;;;;;;0.70;0.70;;;14.40;64.60;;;;;;4992841;28;20069;-89
2021/05/22 08:58:52;;;;;;;1.67;1.00;;;14.40;64.60;;;;;;5012581;28;20021;-89
2021/05/22 09:01:18;;;;;;;0.70;0.70;;;14.40;64.60;;;;;;4996783;28;20038;-88
2021/05/22 09:03:45;;;;;;;0.70;0.70;;;14.40;64.60;;;;;;4996323;28;20034;-90
2021/05/22 09:06:11;;;;;;;0.95;0.80;;;14.40;64.70;;;;;;5012956;28;20451;-89
2021/05/22 09:08:36;;;;;;;0.77;0.77;;;14.40;64.70;;;;;;4991907;28;20228;-90
2021/05/22 09:11:05;;;;;;;1.25;0.93;;;14.40;64.70;;;;;;4999802;28;20077;-94
2021/05/22 09:13:32;;;;;;;0.80;0.80;;;14.40;64.80;;;;;;4990278;28;20030;-91
2021/05/22 09:16:01;;;;;;;1.55;1.10;;;14.40;64.80;;;;;;5006432;28;20101;-92
2021/05/22 09:18:44;;;;;;;0.73;0.73;;;14.50;64.90;;;;;;4992793;28;20038;-88
2021/05/22 09:21:12;;;;;;;1.98;1.00;;;14.50;65.00;;;;;;5009559;28;20437;-86
2021/05/22 09:23:41;;;;;;;0.93;0.90;;;14.50;64.90;;;;;;4993964;28;20490;-94
2021/05/22 09:26:09;;;;;;;1.80;1.00;;;14.50;64.90;;;;;;5006062;28;20045;-95
2021/05/22 09:28:37;;;;;;;1.40;0.90;;;14.50;64.90;;;;;;5002889;28;20480;-87
2021/05/22 09:31:05;;;;;;;0.98;0.88;;;14.50;64.90;;;;;;4994756;28;20034;-90
2021/05/22 09:33:33;;;;;;;0.93;0.90;;;14.50;65.00;;;;;;4989771;28;20034;-90
2021/05/22 09:36:12;;;;;;;1.25;0.90;;;14.50;65.00;;;;;;5004139;28;20121;-90
2021/05/22 09:38:40;;;;;;;1.05;0.95;;;14.50;65.00;;;;;;4998543;28;20137;-87
2021/05/22 09:41:26;;;;;;;0.90;0.88;;;14.50;64.90;;;;;;4994177;28;20031;-88
2021/05/22 09:44:18;;;;;;;0.90;0.90;;;14.50;65.10;;;;;;5004860;28;20018;-92
2021/05/22 09:46:44;;;;;;;1.00;0.95;;;14.50;65.10;;;;;;5024547;28;20033;-90
2021/05/22 09:49:10;;;;;;;1.23;0.90;;;14.50;65.00;;;;;;4991860;28;20534;-86
2021/05/22 09:51:59;;;;;;;0.90;0.90;;;14.60;65.10;;;;;;5006995;28;20056;-90
2021/05/22 09:54:52;;;;;;;1.27;0.98;;;14.50;65.30;;;;;;4993043;28;20434;-88
2021/05/22 09:57:42;;;;;;;1.48;1.10;;;14.60;65.30;;;;;;5016824;28;20030;-85
2021/05/22 10:00:08;;;;;;;1.00;0.90;;;14.60;65.10;;;;;;5005884;28;20387;-86
2021/05/22 10:02:45;;;;;;;1.08;0.98;;;14.60;65.10;;;;;;5008937;28;20034;-87
2021/05/22 10:05:26;;;;;;;0.93;0.90;;;14.60;65.30;;;;;;5002500;28;20471;-86
2021/05/22 10:07:56;;;;;;;1.10;1.00;;;14.60;65.90;;;;;;4995289;28;20411;-86
2021/05/22 10:10:24;;;;;;;1.60;1.10;;;14.60;65.30;;;;;;5012092;28;20034;-82
2021/05/22 10:12:51;;;;;;;1.45;1.00;;;14.70;65.30;;;;;;5014789;28;20026;-83
2021/05/22 10:15:19;;;;;;;2.22;1.15;;;14.60;65.30;;;;;;5022307;28;20555;-82
2021/05/22 10:17:45;;;;;;;0.85;0.85;;;14.70;65.30;;;;;;5005255;28;20030;-81
2021/05/22 10:20:13;;;;;;;1.95;1.10;;;14.60;65.30;;;;;;5000865;28;20034;-82
2021/05/22 10:22:43;;;;;;;2.20;1.17;;;14.70;65.30;;;;;;5013765;28;20458;-82
2021/05/22 10:25:10;;;;;;;1.33;1.02;;;14.70;65.40;;;;;;4991116;28;20037;-81
2021/05/22 10:27:37;;;;;;;1.00;1.00;;;14.70;65.30;;;;;;5013939;28;20026;-82
2021/05/22 10:30:04;;;;;;;1.00;0.90;;;14.70;65.30;;;;;;5014590;28;20022;-81
2021/05/22 10:32:32;;;;;;;1.25;1.15;;;14.70;65.30;;;;;;5014231;28;20029;-79
2021/05/22 10:35:06;;;;;;;1.10;1.00;;;14.70;65.40;;;;;;5014138;28;20041;-80
2021/05/22 10:37:35;;;;;;;1.77;1.05;;;14.70;65.40;;;;;;5014451;28;20034;-81
2021/05/22 10:40:02;;;;;;;1.15;1.05;;;14.70;65.40;;;;;;4997629;28;20045;-80
2021/05/22 10:42:31;;;;;;;1.45;1.15;;;14.70;65.40;;;;;;5006872;28;20033;-81
2021/05/22 10:44:58;;;;;;;1.20;1.10;;;14.70;65.40;;;;;;5024250;28;20140;-81
2021/05/22 10:47:28;;;;;;;0.90;0.90;;;14.80;65.50;;;;;;5014074;28;20489;-81
2021/05/22 10:49:59;;;;;;;1.67;1.00;;;14.80;65.50;;;;;;5010537;28;20097;-80
2021/05/22 10:52:27;;;;;;;1.17;1.10;;;14.80;65.50;;;;;;4999784;28;20423;-79
2021/05/22 10:55:12;;;;;;;1.35;1.25;;;14.80;65.50;;;;;;4997138;28;20109;-80
2021/05/22 10:57:48;;;;;;;1.17;1.08;;;14.80;65.50;;;;;;4983974;28;20034;-80
2021/05/22 11:00:13;;;;;;;1.20;1.10;;;14.80;65.60;;;;;;5013755;28;20057;-80
2021/05/22 11:02:42;;;;;;;1.20;1.10;;;14.80;65.40;;;;;;4993767;28;20482;-80
2021/05/22 11:05:29;;;;;;;1.00;1.00;;;14.80;65.50;;;;;;4986312;28;20488;-80
2021/05/22 11:08:06;;;;;;;1.00;1.00;;;14.90;65.70;;;;;;4995350;28;20031;-81
2021/05/22 11:10:51;;;;;;;1.20;1.10;;;14.90;65.60;;;;;;4994439;28;20537;-81
2021/05/22 11:13:23;;;;;;;1.20;1.10;;;14.90;65.70;;;;;;5012379;28;20026;-80
2021/05/22 11:15:56;;;;;;;1.50;1.00;;;14.80;65.60;;;;;;5013261;28;20055;-80
2021/05/22 11:18:25;;;;;;;1.00;1.00;;;14.80;65.60;;;;;;5013503;28;20021;-80
2021/05/22 11:21:18;;;;;;;1.00;1.00;;;14.90;65.70;;;;;;4996693;28;20487;-80
2021/05/22 11:24:00;;;;;;;1.35;1.08;;;14.90;65.90;;;;;;5013427;28;20033;-81
2021/05/22 11:27:00;;;;;;;1.00;1.00;;;14.90;65.80;;;;;;4996220;28;20034;-81
2021/05/22 11:29:50;;;;;;;0.90;0.90;;;14.90;65.80;;;;;;4999196;28;20030;-80
2021/05/22 11:32:49;;;;;;;1.77;1.20;;;14.90;65.90;;;;;;5002133;28;20193;-81
2021/05/22 11:35:30;;;;;;;1.05;1.05;;;14.90;65.90;;;;;;5000336;28;20026;-81
2021/05/22 11:38:11;;;;;;;1.20;1.10;;;15.00;66.00;;;;;;5012356;28;20092;-82
2021/05/22 11:40:39;;;;;;;1.02;1.00;;;14.90;65.80;;;;;;4993452;28;20086;-83
2021/05/22 11:45:44;;;;;;;1.63;1.17;;;14.90;66.00;;;;;;5015006;28;20096;-82
2021/05/22 11:48:32;;;;;;;1.00;1.00;;;15.00;65.90;;;;;;5013149;28;20370;-82
2021/05/22 11:50:58;;;;;;;1.00;1.00;;;15.00;66.10;;;;;;5013398;28;20057;-82
2021/05/22 11:53:28;;;;;;;1.73;1.17;;;15.00;65.80;;;;;;5013315;28;20026;-83
2021/05/22 11:56:15;;;;;;;1.35;1.20;;;15.00;65.90;;;;;;5013017;28;20030;-83
2021/05/22 11:58:47;;;;;;;1.10;1.10;;;15.00;66.00;;;;;;4993650;28;20455;-88
2021/05/22 12:01:17;;;;;;;1.20;1.10;;;15.00;65.90;;;;;;5004926;28;20438;-83
2021/05/22 12:03:49;;;;;;;1.27;1.17;;;15.00;66.00;;;;;;5012752;28;20022;-90
2021/05/22 12:06:24;;;;;;;1.27;1.08;;;15.00;66.00;;;;;;5014302;28;20033;-83
2021/05/22 12:09:12;;;;;;;0.98;0.98;;;15.10;66.10;;;;;;5012355;28;20029;-83
2021/05/22 12:11:43;;;;;;;1.90;1.02;;;15.00;66.10;;;;;;4994323;28;20165;-83
2021/05/22 12:14:10;;;;;;;0.95;0.95;;;15.10;66.00;;;;;;5013414;28;20053;-83
2021/05/22 12:16:37;;;;;;;1.20;1.10;;;15.10;66.00;;;;;;4996303;28;20121;-83
2021/05/22 12:19:17;;;;;;;1.08;0.98;;;15.10;66.00;;;;;;5012346;28;20125;-83
2021/05/22 12:21:51;;;;;;;1.15;1.00;;;15.10;66.20;;;;;;5012857;28;20030;-82
2021/05/22 12:24:17;;;;;;;1.20;0.98;;;15.10;66.00;;;;;;5007985;28;20041;-82
2021/05/22 12:26:55;;;;;;;1.20;1.10;;;15.10;66.00;;;;;;4984138;28;20415;-82
2021/05/22 12:29:22;;;;;;;1.30;1.20;;;15.10;66.20;;;;;;4977579;28;20034;-82
2021/05/22 12:31:55;;;;;;;1.70;1.17;;;15.20;66.20;;;;;;4995893;28;20489;-83
2021/05/22 12:34:39;;;;;;;0.90;0.90;;;15.20;66.20;;;;;;4992393;28;20027;-89
2021/05/22 12:37:06;;;;;;;1.13;1.00;;;15.20;66.30;;;;;;5008697;28;20050;-82
2021/05/22 12:39:35;;;;;;;1.33;1.10;;;15.20;66.20;;;;;;4992903;28;20571;-83
2021/05/22 12:42:22;;;;;;;1.10;1.00;;;15.20;66.20;;;;;;5012161;28;20036;-82
2021/05/22 12:44:50;;;;;;;1.40;1.30;;;15.20;66.30;;;;;;5012143;28;20041;-85
2021/05/22 12:47:17;;;;;;;1.30;1.20;;;15.20;66.20;;;;;;5012656;28;20033;-83
2021/05/22 12:49:53;;;;;;;1.23;1.13;;;15.20;66.20;;;;;;5012249;28;20057;-83
2021/05/22 12:52:20;;;;;;;1.30;1.20;;;15.20;66.30;;;;;;5013710;28;20030;-82
2021/05/22 12:54:46;;;;;;;2.20;1.40;;;15.30;66.20;;;;;;4998304;28;20030;-84
2021/05/22 12:57:19;;;;;;;1.30;1.20;;;15.30;66.20;;;;;;5008886;28;20041;-82
2021/05/22 13:00:07;;;;;;;2.15;1.48;;;15.30;66.30;;;;;;5018074;28;20034;-82
2021/05/22 13:02:37;;;;;;;2.08;1.45;;;15.30;66.40;;;;;;5017086;28;20104;-82